createdAt,value
2023-08-08T00:00:48.068Z,24.16
2023-08-08T00:02:53.908Z,24.16
2023-08-08T00:04:59.713Z,24.16
2023-08-08T00:07:05.154Z,24.18
2023-08-08T00:09:10.592Z,24.18
2023-08-08T00:11:16.030Z,24.19
2023-08-08T00:13:21.367Z,24.19
2023-08-08T00:15:26.607Z,24.2
2023-08-08T00:17:32.484Z,24.19
2023-08-08T00:19:37.886Z,24.19
2023-08-08T00:21:43.331Z,24.19
2023-08-08T00:23:48.673Z,24.18
2023-08-08T00:25:54.110Z,24.19
2023-08-08T00:27:59.560Z,24.18
2023-08-08T00:30:04.996Z,24.18
2023-08-08T00:32:10.739Z,24.19
2023-08-08T00:34:16.085Z,24.2
2023-08-08T00:36:21.425Z,24.2
2023-08-08T00:38:26.964Z,24.21
2023-08-08T00:40:32.408Z,24.2
2023-08-08T00:42:37.648Z,24.2
2023-08-08T00:44:42.971Z,24.2
2023-08-08T00:46:48.460Z,24.21
2023-08-08T00:48:53.952Z,24.21
2023-08-08T00:50:59.293Z,24.21
2023-08-08T00:53:04.628Z,24.22
2023-08-08T00:55:09.877Z,24.24
2023-08-08T00:57:15.212Z,24.24
2023-08-08T00:59:20.648Z,24.22
2023-08-08T01:01:26.185Z,24.2
2023-08-08T01:03:31.418Z,24.19
2023-08-08T01:05:36.977Z,24.18
2023-08-08T01:07:42.304Z,24.16
2023-08-08T01:09:47.577Z,24.13
2023-08-08T01:11:53.089Z,24.13
2023-08-08T01:13:58.414Z,24.13
2023-08-08T01:16:03.549Z,24.1
2023-08-08T01:18:09.044Z,24.09
2023-08-08T01:20:14.533Z,24.1
2023-08-08T01:22:19.783Z,24.1
2023-08-08T01:24:25.109Z,24.1
2023-08-08T01:26:30.456Z,24.09
2023-08-08T01:28:35.797Z,24.06
2023-08-08T01:30:41.146Z,24.05
2023-08-08T01:32:46.581Z,24.05
2023-08-08T01:34:52.111Z,24.04
2023-08-08T01:36:57.551Z,24.05
2023-08-08T01:39:02.891Z,24.05
2023-08-08T01:41:08.446Z,24.05
2023-08-08T01:43:13.860Z,24.04
2023-08-08T01:45:19.231Z,24.03
2023-08-08T01:47:24.576Z,24.02
2023-08-08T01:49:29.995Z,24.02
2023-08-08T01:51:35.425Z,24
2023-08-08T01:53:40.863Z,23.99
2023-08-08T01:55:46.422Z,23.97
2023-08-08T01:57:51.762Z,23.97
2023-08-08T01:59:57.190Z,23.98
2023-08-08T02:02:02.877Z,23.96
2023-08-08T02:04:08.470Z,23.95
2023-08-08T02:06:13.921Z,23.96
2023-08-08T02:08:19.567Z,23.94
2023-08-08T02:10:24.997Z,23.94
2023-08-08T02:12:30.450Z,23.94
2023-08-08T02:14:36.087Z,23.92
2023-08-08T02:16:41.219Z,23.93
2023-08-08T02:18:46.658Z,23.92
2023-08-08T02:21:16.063Z,23.88
2023-08-08T02:23:21.504Z,23.9
2023-08-08T02:25:27.040Z,23.89
2023-08-08T02:27:32.277Z,23.89
2023-08-08T02:29:37.578Z,23.87
2023-08-08T02:31:43.057Z,23.87
2023-08-08T02:33:48.611Z,23.86
2023-08-08T02:35:53.944Z,23.83
2023-08-08T02:37:59.478Z,23.82
2023-08-08T02:40:04.711Z,23.82
2023-08-08T02:42:10.049Z,23.82
2023-08-08T02:44:15.398Z,23.81
2023-08-08T02:46:21.046Z,23.79
2023-08-08T02:48:26.486Z,23.77
2023-08-08T02:50:31.727Z,23.79
2023-08-08T02:52:36.949Z,23.79
2023-08-08T02:54:42.284Z,23.8
2023-08-08T02:56:47.530Z,23.79
2023-08-08T02:58:52.865Z,23.8
2023-08-08T03:00:58.321Z,23.79
2023-08-08T03:03:03.771Z,23.79
2023-08-08T03:05:09.291Z,23.8
2023-08-08T03:07:14.850Z,23.77
2023-08-08T03:09:20.175Z,23.79
2023-08-08T03:11:25.714Z,23.79
2023-08-08T03:13:31.145Z,23.8
2023-08-08T03:15:36.430Z,23.8
2023-08-08T03:17:41.844Z,23.81
2023-08-08T03:19:47.493Z,23.81
2023-08-08T03:21:52.988Z,23.81
2023-08-08T03:23:58.668Z,23.81
2023-08-08T03:26:04.211Z,23.8
2023-08-08T03:28:09.651Z,23.81
2023-08-08T03:30:15.191Z,23.8
2023-08-08T03:32:20.427Z,23.78
2023-08-08T03:34:25.773Z,23.78
2023-08-08T03:36:31.192Z,23.77
2023-08-08T03:38:36.761Z,23.76
2023-08-08T03:40:42.185Z,23.76
2023-08-08T03:42:47.734Z,23.75
2023-08-08T03:44:53.069Z,23.76
2023-08-08T03:47:05.913Z,23.73
2023-08-08T03:49:24.123Z,23.72
2023-08-08T03:51:29.566Z,23.73
2023-08-08T03:53:34.903Z,23.73
2023-08-08T03:55:40.237Z,23.74
2023-08-08T03:57:45.679Z,23.75
2023-08-08T03:59:51.325Z,23.73
2023-08-08T04:01:56.789Z,23.73
2023-08-08T04:04:02.911Z,23.74
2023-08-08T04:06:08.261Z,23.73
2023-08-08T04:08:13.634Z,23.73
2023-08-08T04:10:19.239Z,23.73
2023-08-08T04:12:24.884Z,23.72
2023-08-08T04:14:30.319Z,23.7
2023-08-08T04:16:35.683Z,23.68
2023-08-08T04:18:41.204Z,23.68
2023-08-08T04:20:46.642Z,23.66
2023-08-08T04:22:51.872Z,23.67
2023-08-08T04:24:58.037Z,23.67
2023-08-08T04:27:03.473Z,23.66
2023-08-08T04:29:08.834Z,23.66
2023-08-08T04:31:14.207Z,23.66
2023-08-08T04:33:19.892Z,23.65
2023-08-08T04:35:25.292Z,23.64
2023-08-08T04:37:30.775Z,23.65
2023-08-08T04:39:36.113Z,23.65
2023-08-08T04:41:41.459Z,23.65
2023-08-08T04:43:46.804Z,23.63
2023-08-08T04:45:52.123Z,23.64
2023-08-08T04:47:57.582Z,23.63
2023-08-08T04:50:03.108Z,23.63
2023-08-08T04:52:08.462Z,23.62
2023-08-08T04:54:13.992Z,23.63
2023-08-08T04:56:19.236Z,23.63
2023-08-08T04:58:24.677Z,23.62
2023-08-08T05:00:29.938Z,23.65
2023-08-08T05:02:35.469Z,23.64
2023-08-08T05:04:40.897Z,23.63
2023-08-08T05:06:46.226Z,23.64
2023-08-08T05:08:51.782Z,23.65
2023-08-08T05:10:57.317Z,23.65
2023-08-08T05:13:02.649Z,23.66
2023-08-08T05:15:07.884Z,23.65
2023-08-08T05:17:13.227Z,23.64
2023-08-08T05:19:18.556Z,23.64
2023-08-08T05:21:24.003Z,23.66
2023-08-08T05:23:29.446Z,23.66
2023-08-08T05:25:34.777Z,23.65
2023-08-08T05:27:40.119Z,23.68
2023-08-08T05:29:45.350Z,23.68
2023-08-08T05:31:50.692Z,23.7
2023-08-08T05:33:56.074Z,23.71
2023-08-08T05:36:01.578Z,23.7
2023-08-08T05:38:07.016Z,23.72
2023-08-08T05:40:12.342Z,23.71
2023-08-08T05:42:17.592Z,23.72
2023-08-08T05:44:23.129Z,23.72
2023-08-08T05:46:28.504Z,23.71
2023-08-08T05:48:33.915Z,23.74
2023-08-08T05:50:39.443Z,23.74
2023-08-08T05:52:44.902Z,23.74
2023-08-08T05:54:50.437Z,23.73
2023-08-08T05:56:56.396Z,23.74
2023-08-08T05:59:01.819Z,23.75
2023-08-08T06:01:07.307Z,23.74
2023-08-08T06:03:12.804Z,23.72
2023-08-08T06:05:18.771Z,23.72
2023-08-08T06:07:24.202Z,23.71
2023-08-08T06:09:29.541Z,23.71
2023-08-08T06:11:34.974Z,23.71
2023-08-08T06:13:41.346Z,23.72
2023-08-08T06:15:47.656Z,23.71
2023-08-08T06:17:53.052Z,23.71
2023-08-08T06:19:58.540Z,23.72
2023-08-08T06:22:04.033Z,23.71
2023-08-08T06:24:09.572Z,23.71
2023-08-08T06:26:15.107Z,23.71
2023-08-08T06:28:20.959Z,23.69
2023-08-08T06:30:26.294Z,23.71
2023-08-08T06:32:31.867Z,23.72
2023-08-08T06:34:37.275Z,23.74
2023-08-08T06:36:42.604Z,23.72
2023-08-08T06:38:48.051Z,23.74
2023-08-08T06:40:53.278Z,23.74
2023-08-08T06:42:58.629Z,23.73
2023-08-08T06:45:04.072Z,23.71
2023-08-08T06:47:09.929Z,23.71
2023-08-08T06:49:15.465Z,23.68
2023-08-08T06:51:20.805Z,23.71
2023-08-08T06:53:26.151Z,23.73
2023-08-08T06:55:31.493Z,23.73
2023-08-08T06:57:36.922Z,23.74
2023-08-08T06:59:42.278Z,23.76
2023-08-08T07:01:47.746Z,23.76
2023-08-08T07:03:53.044Z,23.77
2023-08-08T07:05:58.486Z,23.79
2023-08-08T07:08:03.937Z,23.78
2023-08-08T07:10:09.371Z,23.78
2023-08-08T07:12:14.902Z,23.79
2023-08-08T07:14:20.352Z,23.78
2023-08-08T07:16:25.892Z,23.77
2023-08-08T07:18:31.343Z,23.76
2023-08-08T07:20:36.615Z,23.76
2023-08-08T07:22:41.940Z,23.75
2023-08-08T07:24:47.493Z,23.75
2023-08-08T07:26:53.004Z,23.75
2023-08-08T07:28:58.347Z,23.75
2023-08-08T07:31:03.889Z,23.76
2023-08-08T07:33:09.441Z,23.76
2023-08-08T07:35:14.973Z,23.76
2023-08-08T07:37:20.417Z,23.77
2023-08-08T07:39:25.766Z,23.77
2023-08-08T07:41:30.982Z,23.78
2023-08-08T07:43:36.529Z,23.8
2023-08-08T07:45:42.008Z,23.8
2023-08-08T07:47:47.620Z,23.8
2023-08-08T07:49:53.369Z,23.81
2023-08-08T07:51:59.085Z,23.79
2023-08-08T07:54:05.481Z,23.82
2023-08-08T07:56:11.004Z,23.84
2023-08-08T07:58:16.269Z,23.86
2023-08-08T08:00:21.692Z,23.87
2023-08-08T08:02:27.297Z,23.88
2023-08-08T08:04:32.875Z,23.88
2023-08-08T08:06:38.218Z,23.88
2023-08-08T08:08:46.999Z,23.87
2023-08-08T08:10:52.287Z,23.87
2023-08-08T08:12:57.708Z,23.86
2023-08-08T08:15:03.366Z,23.87
2023-08-08T08:17:08.730Z,23.86
2023-08-08T08:19:14.344Z,23.86
2023-08-08T08:21:19.680Z,23.86
2023-08-08T08:23:25.021Z,23.84
2023-08-08T08:25:30.559Z,23.83
2023-08-08T08:27:36.057Z,23.83
2023-08-08T08:29:41.442Z,23.8
2023-08-08T08:31:46.891Z,23.8
2023-08-08T08:33:52.232Z,23.83
2023-08-08T08:35:57.784Z,23.87
2023-08-08T08:38:03.230Z,23.9
2023-08-08T08:40:08.579Z,23.93
2023-08-08T08:42:13.944Z,23.96
2023-08-08T08:44:22.735Z,23.98
2023-08-08T08:46:28.343Z,23.97
2023-08-08T08:48:34.038Z,23.98
2023-08-08T08:50:39.493Z,24
2023-08-08T08:52:44.800Z,24.01
2023-08-08T08:54:50.146Z,24.03
2023-08-08T08:56:55.572Z,24.05
2023-08-08T08:59:01.036Z,24.06
2023-08-08T09:01:06.378Z,24.09
2023-08-08T09:03:11.822Z,24.12
2023-08-08T09:05:17.446Z,24.14
2023-08-08T09:07:22.888Z,24.14
2023-08-08T09:09:28.332Z,24.16
2023-08-08T09:11:33.754Z,24.17
2023-08-08T09:13:39.194Z,24.19
2023-08-08T09:15:44.703Z,24.2
2023-08-08T09:17:50.224Z,24.22
2023-08-08T09:19:55.639Z,24.23
2023-08-08T09:22:01.468Z,24.24
2023-08-08T09:24:07.284Z,24.2
2023-08-08T09:26:13.093Z,24.08
2023-08-08T09:28:18.320Z,23.96
2023-08-08T09:30:23.851Z,23.84
2023-08-08T09:32:29.319Z,23.7
2023-08-08T09:34:34.734Z,23.58
2023-08-08T09:36:40.086Z,23.46
2023-08-08T09:38:45.390Z,23.35
2023-08-08T09:40:50.760Z,23.25
2023-08-08T09:42:56.409Z,23.26
2023-08-08T09:45:01.979Z,23.31
2023-08-08T09:47:07.290Z,23.33
2023-08-08T09:49:12.577Z,23.35
2023-08-08T09:51:17.963Z,23.38
2023-08-08T09:53:23.292Z,23.4
2023-08-08T09:55:28.742Z,23.44
2023-08-08T09:57:34.093Z,23.44
2023-08-08T09:59:39.827Z,23.42
2023-08-08T10:01:45.416Z,23.33
2023-08-08T10:03:51.142Z,23.3
2023-08-08T10:05:56.866Z,23.24
2023-08-08T10:08:02.298Z,23.22
2023-08-08T10:10:07.641Z,23.19
2023-08-08T10:12:13.398Z,23.1
2023-08-08T10:14:18.727Z,23.05
2023-08-08T10:16:24.486Z,22.9
2023-08-08T10:18:30.223Z,22.73
2023-08-08T10:20:35.657Z,22.64
2023-08-08T10:22:41.323Z,22.63
2023-08-08T10:24:46.753Z,22.62
2023-08-08T10:26:52.080Z,22.54
2023-08-08T10:28:59.757Z,22.52
2023-08-08T10:31:05.627Z,22.46
2023-08-08T10:33:11.119Z,22.4
2023-08-08T10:35:16.509Z,22.42
2023-08-08T10:37:22.051Z,22.49
2023-08-08T10:39:27.389Z,22.53
2023-08-08T10:41:32.614Z,22.56
2023-08-08T10:43:38.059Z,22.63
2023-08-08T10:45:43.325Z,22.68
2023-08-08T10:47:52.566Z,22.79
2023-08-08T10:49:58.181Z,22.81
2023-08-08T10:52:03.408Z,22.78
2023-08-08T10:54:08.677Z,22.71
2023-08-08T10:56:14.206Z,22.69
2023-08-08T10:58:19.417Z,22.74
2023-08-08T11:00:24.826Z,22.7
2023-08-08T11:02:30.338Z,22.67
2023-08-08T11:04:36.048Z,22.7
2023-08-08T11:06:41.294Z,22.77
2023-08-08T11:08:46.762Z,22.85
2023-08-08T11:10:52.378Z,22.98
2023-08-08T11:12:57.818Z,23.09
2023-08-08T11:15:03.061Z,23.15
2023-08-08T11:17:08.504Z,23.19
2023-08-08T11:19:14.037Z,23.23
2023-08-08T11:21:19.787Z,23.22
2023-08-08T11:23:25.223Z,23.18
2023-08-08T11:25:30.566Z,23.09
2023-08-08T11:29:47.397Z,23.12
2023-08-08T11:31:52.711Z,23.16
2023-08-08T11:33:58.277Z,23.22
2023-08-08T11:36:03.528Z,23.23
2023-08-08T11:38:12.214Z,23.11
2023-08-08T11:40:17.551Z,23.05
2023-08-08T11:42:22.992Z,22.94
2023-08-08T11:44:28.230Z,22.95
2023-08-08T11:46:33.530Z,22.99
2023-08-08T11:48:39.231Z,23.05
2023-08-08T11:50:44.648Z,23.12
2023-08-08T11:52:49.997Z,23.23
2023-08-08T11:54:55.328Z,23.33
2023-08-08T11:57:00.670Z,23.39
2023-08-08T11:59:06.001Z,23.41
2023-08-08T12:01:11.254Z,23.43
2023-08-08T12:03:16.751Z,23.48
2023-08-08T12:05:22.527Z,23.5
2023-08-08T12:07:28.079Z,23.47
2023-08-08T12:09:33.432Z,23.48
2023-08-08T12:11:38.964Z,23.51
2023-08-08T12:13:44.511Z,23.53
2023-08-08T12:15:50.562Z,23.56
2023-08-08T12:17:59.303Z,23.57
2023-08-08T12:20:05.024Z,23.62
2023-08-08T12:22:10.555Z,23.62
2023-08-08T12:24:15.910Z,23.65
2023-08-08T12:26:21.548Z,23.7
2023-08-08T12:28:26.888Z,23.73
2023-08-08T12:30:32.333Z,23.77
2023-08-08T12:32:37.573Z,23.81
2023-08-08T12:34:42.996Z,23.84
2023-08-08T12:36:48.449Z,23.86
2023-08-08T12:38:53.774Z,23.89
2023-08-08T12:40:59.063Z,23.9
2023-08-08T12:43:04.450Z,23.91
2023-08-08T12:45:09.684Z,23.93
2023-08-08T12:47:15.671Z,23.94
2023-08-08T12:49:21.407Z,23.93
2023-08-08T12:51:26.837Z,23.9
2023-08-08T12:53:32.174Z,23.8
2023-08-08T12:55:37.923Z,23.73
2023-08-08T12:57:43.362Z,23.68
2023-08-08T12:59:49.008Z,23.65
2023-08-08T13:01:54.468Z,23.62
2023-08-08T13:04:16.516Z,23.6
2023-08-08T13:06:24.578Z,23.62
2023-08-08T13:08:29.907Z,23.6
2023-08-08T13:10:35.251Z,23.58
2023-08-08T13:12:40.796Z,23.56
2023-08-08T13:14:46.235Z,23.56
2023-08-08T13:16:51.571Z,23.59
2023-08-08T13:18:57.025Z,23.6
2023-08-08T13:21:02.446Z,23.61
2023-08-08T13:23:09.839Z,23.64
2023-08-08T13:25:15.179Z,23.65
2023-08-08T13:27:23.496Z,23.62
2023-08-08T13:29:28.923Z,23.6
2023-08-08T13:31:34.360Z,23.58
2023-08-08T13:33:39.607Z,23.54
2023-08-08T13:35:44.937Z,23.52
2023-08-08T13:37:50.203Z,23.52
2023-08-08T13:39:55.478Z,23.52
2023-08-08T13:42:01.259Z,23.5
2023-08-08T13:44:07.216Z,23.48
2023-08-08T13:46:12.592Z,23.42
2023-08-08T13:48:17.892Z,23.41
2023-08-08T13:50:23.235Z,23.4
2023-08-08T13:52:28.571Z,23.41
2023-08-08T13:54:34.111Z,23.41
2023-08-08T13:56:39.346Z,23.39
2023-08-08T13:58:44.806Z,23.38
2023-08-08T14:00:50.230Z,23.37
2023-08-08T14:02:55.766Z,23.37
2023-08-08T14:05:01.632Z,23.39
2023-08-08T14:07:06.975Z,23.39
2023-08-08T14:09:13.587Z,23.39
2023-08-08T14:11:22.972Z,23.41
2023-08-08T14:13:28.305Z,23.4
2023-08-08T14:15:33.645Z,23.41
2023-08-08T14:17:39.094Z,23.42
2023-08-08T14:19:44.421Z,23.44
2023-08-08T14:21:49.861Z,23.49
2023-08-08T14:23:55.410Z,23.5
2023-08-08T14:26:00.844Z,23.52
2023-08-08T14:28:06.215Z,23.51
2023-08-08T14:30:11.629Z,23.55
2023-08-08T14:32:17.071Z,23.55
2023-08-08T14:34:22.602Z,23.52
2023-08-08T14:36:27.947Z,23.45
2023-08-08T14:38:33.321Z,23.39
2023-08-08T14:40:38.910Z,23.32
2023-08-08T14:42:44.274Z,23.26
2023-08-08T14:44:50.022Z,23.24
2023-08-08T14:46:55.356Z,23.23
2023-08-08T14:49:00.690Z,23.26
2023-08-08T14:51:05.884Z,23.27
2023-08-08T14:53:11.369Z,23.29
2023-08-08T14:55:16.819Z,23.3
2023-08-08T14:57:22.257Z,23.34
2023-08-08T14:59:27.697Z,23.41
2023-08-08T15:01:33.034Z,23.5
2023-08-08T15:03:38.470Z,23.56
2023-08-08T15:05:43.807Z,23.62
2023-08-08T15:07:49.142Z,23.6
2023-08-08T15:09:54.376Z,23.55
2023-08-08T15:11:59.841Z,23.53
2023-08-08T15:14:05.263Z,23.49
2023-08-08T15:16:10.742Z,23.51
2023-08-08T15:18:17.321Z,23.52
2023-08-08T15:20:22.716Z,23.53
2023-08-08T15:22:28.163Z,23.52
2023-08-08T15:24:33.810Z,23.51
2023-08-08T15:26:39.342Z,23.5
2023-08-08T15:28:45.300Z,23.5
2023-08-08T15:30:52.675Z,23.44
2023-08-08T15:32:58.068Z,23.45
2023-08-08T15:35:03.464Z,23.46
2023-08-08T15:37:08.799Z,23.44
2023-08-08T15:39:14.249Z,23.44
2023-08-08T15:41:19.815Z,23.39
2023-08-08T15:43:25.144Z,23.34
2023-08-08T15:45:30.674Z,23.31
2023-08-08T15:47:36.233Z,23.31
2023-08-08T15:49:41.753Z,23.31
2023-08-08T15:51:47.805Z,23.35
2023-08-08T15:53:54.330Z,23.37
2023-08-08T15:55:59.859Z,23.39
2023-08-08T15:58:05.468Z,23.43
2023-08-08T16:00:11.145Z,23.47
2023-08-08T16:02:18.007Z,23.53
2023-08-08T16:04:24.370Z,23.58
2023-08-08T16:06:29.785Z,23.58
2023-08-08T16:08:35.014Z,23.59
2023-08-08T16:10:40.465Z,23.6
2023-08-08T16:12:45.710Z,23.61
2023-08-08T16:14:51.045Z,23.65
2023-08-08T16:16:56.813Z,23.7
2023-08-08T16:19:04.308Z,23.67
2023-08-08T16:21:09.742Z,23.67
2023-08-08T16:23:15.141Z,23.67
2023-08-08T16:25:20.827Z,23.67
2023-08-08T16:27:26.170Z,23.62
2023-08-08T16:29:31.412Z,23.58
2023-08-08T16:31:36.751Z,23.56
2023-08-08T16:33:42.263Z,23.53
2023-08-08T16:35:47.759Z,23.54
2023-08-08T16:37:53.353Z,23.57
2023-08-08T16:39:58.604Z,23.58
2023-08-08T16:42:04.050Z,23.59
2023-08-08T16:44:09.578Z,23.6
2023-08-08T16:46:15.059Z,23.61
2023-08-08T16:48:20.573Z,23.63
2023-08-08T16:50:26.116Z,23.65
2023-08-08T16:52:31.442Z,23.66
2023-08-08T16:54:37.101Z,23.65
2023-08-08T16:56:42.666Z,23.64
2023-08-08T16:58:48.195Z,23.65
2023-08-08T17:00:55.011Z,23.65
2023-08-08T17:03:00.515Z,23.64
2023-08-08T17:05:05.922Z,23.63
2023-08-08T17:07:11.160Z,23.62
2023-08-08T17:09:16.406Z,23.63
2023-08-08T17:11:23.948Z,23.63
2023-08-08T17:13:34.340Z,23.63
2023-08-08T17:15:39.567Z,23.62
2023-08-08T17:17:45.106Z,23.61
2023-08-08T17:19:50.573Z,23.6
2023-08-08T17:21:56.028Z,23.64
2023-08-08T17:24:01.463Z,23.65
2023-08-08T17:26:06.895Z,23.67
2023-08-08T17:28:12.346Z,23.68
2023-08-08T17:30:17.779Z,23.7
2023-08-08T17:32:23.146Z,23.71
2023-08-08T17:34:28.867Z,23.72
2023-08-08T17:36:34.327Z,23.71
2023-08-08T17:38:39.643Z,23.71
2023-08-08T17:40:45.082Z,23.69
2023-08-08T17:42:50.615Z,23.72
2023-08-08T17:44:55.865Z,23.77
2023-08-08T17:47:01.189Z,23.77
2023-08-08T17:49:06.537Z,23.8
2023-08-08T17:51:12.069Z,23.86
2023-08-08T17:53:17.256Z,23.92
2023-08-08T17:55:22.544Z,23.96
2023-08-08T17:57:27.929Z,24.02
2023-08-08T17:59:33.227Z,24.04
2023-08-08T18:01:38.789Z,24.06
2023-08-08T18:03:44.570Z,24.07
2023-08-08T18:05:50.156Z,24.03
2023-08-08T18:07:55.312Z,23.96
2023-08-08T18:10:00.499Z,23.89
2023-08-08T18:12:05.794Z,23.83
2023-08-08T18:14:11.102Z,23.81
2023-08-08T18:16:16.452Z,23.8
2023-08-08T18:18:21.886Z,23.81
2023-08-08T18:20:27.440Z,23.86
2023-08-08T18:22:32.968Z,23.9
2023-08-08T18:24:38.424Z,23.94
2023-08-08T18:26:43.749Z,23.94
2023-08-08T18:28:49.187Z,23.95
2023-08-08T18:30:54.618Z,23.97
2023-08-08T18:32:59.890Z,23.95
2023-08-08T18:35:05.310Z,23.92
2023-08-08T18:37:10.747Z,23.88
2023-08-08T18:39:15.940Z,23.87
2023-08-08T18:41:21.102Z,23.84
2023-08-08T18:43:26.452Z,23.83
2023-08-08T18:45:31.887Z,23.83
2023-08-08T18:47:37.368Z,23.81
2023-08-08T18:49:43.079Z,23.83
2023-08-08T18:51:48.526Z,23.83
2023-08-08T18:53:53.854Z,23.81
2023-08-08T18:55:59.194Z,23.83
2023-08-08T18:58:04.527Z,23.83
2023-08-08T19:00:10.185Z,23.82
2023-08-08T19:02:15.918Z,23.78
2023-08-08T19:04:21.577Z,23.77
2023-08-08T19:06:27.009Z,23.76
2023-08-08T19:08:32.457Z,23.76
2023-08-08T19:10:37.796Z,23.74
2023-08-08T19:12:43.334Z,23.75
2023-08-08T19:14:48.559Z,23.75
2023-08-08T19:16:54.021Z,23.78
2023-08-08T19:18:59.473Z,23.8
2023-08-08T19:21:05.036Z,23.8
2023-08-08T19:23:10.328Z,23.81
2023-08-08T19:25:15.665Z,23.81
2023-08-08T19:27:20.927Z,23.81
2023-08-08T19:29:26.658Z,23.77
2023-08-08T19:31:31.910Z,23.62
2023-08-08T19:33:38.273Z,23.47
2023-08-08T19:35:54.441Z,23.28
2023-08-08T19:37:59.740Z,23.16
2023-08-08T19:40:05.026Z,23.09
2023-08-08T19:42:10.456Z,22.99
2023-08-08T19:44:15.984Z,22.89
2023-08-08T19:46:21.489Z,22.79
2023-08-08T19:48:27.183Z,22.69
2023-08-08T19:50:32.621Z,22.61
2023-08-08T19:52:37.862Z,22.58
2023-08-08T19:54:43.512Z,22.53
2023-08-08T19:56:49.069Z,22.51
2023-08-08T19:58:54.498Z,22.51
2023-08-08T20:00:59.966Z,22.53
2023-08-08T20:03:05.500Z,22.54
2023-08-08T20:05:11.020Z,22.52
2023-08-08T20:07:16.463Z,22.5
2023-08-08T20:09:21.893Z,22.47
2023-08-08T20:11:27.146Z,22.45
2023-08-08T20:13:32.670Z,22.42
2023-08-08T20:15:38.054Z,22.41
2023-08-08T20:17:43.518Z,22.39
2023-08-08T20:19:48.999Z,22.36
2023-08-08T20:21:56.297Z,22.36
2023-08-08T20:24:02.557Z,22.37
2023-08-08T20:26:09.322Z,22.35
2023-08-08T20:28:14.460Z,22.33
2023-08-08T20:30:19.618Z,22.31
2023-08-08T20:32:24.821Z,22.3
2023-08-08T20:34:30.147Z,22.27
2023-08-08T20:36:35.500Z,22.29
2023-08-08T20:38:40.727Z,22.27
2023-08-08T20:40:45.953Z,22.26
2023-08-08T20:42:51.317Z,22.23
2023-08-08T20:44:56.749Z,22.2
2023-08-08T20:47:02.407Z,22.18
2023-08-08T20:49:08.956Z,22.17
2023-08-08T20:51:14.294Z,22.2
2023-08-08T20:53:19.589Z,22.17
2023-08-08T20:55:25.004Z,22.19
2023-08-08T20:57:30.518Z,22.23
2023-08-08T20:59:35.954Z,22.23
2023-08-08T21:01:41.410Z,22.19
2023-08-08T21:03:46.948Z,22.13
2023-08-08T21:05:52.690Z,22.09
2023-08-08T21:07:58.356Z,22.07
2023-08-08T21:10:03.666Z,22.03
2023-08-08T21:12:09.003Z,22.01
2023-08-08T21:14:14.240Z,21.98
2023-08-08T21:16:19.467Z,21.92
2023-08-08T21:18:24.904Z,21.91
2023-08-08T21:20:30.256Z,21.88
2023-08-08T21:22:35.580Z,21.85
2023-08-08T21:24:40.913Z,21.8
2023-08-08T21:26:46.262Z,21.79
2023-08-08T21:28:51.605Z,21.82
2023-08-08T21:30:56.946Z,21.91
2023-08-08T21:33:02.621Z,22.01
2023-08-08T21:35:08.015Z,22.13
2023-08-08T21:37:13.456Z,22.27
2023-08-08T21:39:18.912Z,22.38
2023-08-08T21:41:24.242Z,22.49
2023-08-08T21:43:29.790Z,22.57
2023-08-08T21:45:35.329Z,22.66
2023-08-08T21:47:40.661Z,22.72
2023-08-08T21:49:46.210Z,22.78
2023-08-08T21:51:51.539Z,22.83
2023-08-08T21:53:56.872Z,22.88
2023-08-08T21:56:02.250Z,22.91
2023-08-08T21:58:07.842Z,22.94
2023-08-08T22:00:13.112Z,22.98
2023-08-08T22:02:19.794Z,23.01
2023-08-08T22:04:25.427Z,23.03
2023-08-08T22:06:30.946Z,23.05
2023-08-08T22:08:36.299Z,23.06
2023-08-08T22:10:41.840Z,23.09
2023-08-08T22:12:47.283Z,23.12
2023-08-08T22:14:52.613Z,23.12
2023-08-08T22:16:58.061Z,23.16
2023-08-08T22:19:04.521Z,23.19
2023-08-08T22:21:09.852Z,23.21
2023-08-08T22:23:20.036Z,23.22
2023-08-08T22:25:26.271Z,23.22
2023-08-08T22:27:31.906Z,23.24
2023-08-08T22:29:37.339Z,23.26
2023-08-08T22:31:42.583Z,23.27
2023-08-08T22:33:48.018Z,23.29
2023-08-08T22:35:53.367Z,23.3
2023-08-08T22:37:59.006Z,23.3
2023-08-08T22:40:04.252Z,23.31
2023-08-08T22:42:09.894Z,23.32
2023-08-08T22:44:15.233Z,23.32
2023-08-08T22:46:20.799Z,23.33
2023-08-08T22:48:26.208Z,23.34
2023-08-08T22:50:31.439Z,23.35
2023-08-08T22:52:36.691Z,23.35
2023-08-08T22:54:42.020Z,23.35
2023-08-08T22:56:47.468Z,23.36
2023-08-08T22:58:52.904Z,23.37
2023-08-08T23:00:58.441Z,23.39
2023-08-08T23:03:04.278Z,23.4
2023-08-08T23:05:09.952Z,23.4
2023-08-08T23:07:15.239Z,23.42
2023-08-08T23:09:20.717Z,23.41
2023-08-08T23:11:26.154Z,23.41
2023-08-08T23:13:31.596Z,23.41
2023-08-08T23:15:36.935Z,23.41
2023-08-08T23:17:42.383Z,23.41
2023-08-08T23:19:47.712Z,23.41
2023-08-08T23:21:52.972Z,23.41
2023-08-08T23:23:58.378Z,23.43
2023-08-08T23:26:03.718Z,23.44
2023-08-08T23:28:08.933Z,23.44
2023-08-08T23:30:14.315Z,23.45
2023-08-08T23:32:19.757Z,23.44
2023-08-08T23:34:25.182Z,23.45
2023-08-08T23:36:30.609Z,23.45
2023-08-08T23:38:35.936Z,23.46
2023-08-08T23:40:41.396Z,23.46
2023-08-08T23:42:46.728Z,23.45
2023-08-08T23:44:52.183Z,23.47
2023-08-08T23:46:57.824Z,23.47
2023-08-08T23:49:03.358Z,23.47
2023-08-08T23:51:12.180Z,23.47
2023-08-08T23:53:17.525Z,23.48
2023-08-08T23:55:22.967Z,23.48
2023-08-08T23:57:28.190Z,23.46
2023-08-08T23:59:33.734Z,23.47
